createdAt,value
2023-04-30T00:01:19.443Z,5.15
2023-04-30T00:03:51.941Z,3.97
2023-04-30T00:06:25.130Z,4.68
2023-04-30T00:08:59.209Z,5.57
2023-04-30T00:11:31.522Z,7.78
2023-04-30T00:14:04.002Z,9.50
2023-04-30T00:16:37.021Z,10.35
2023-04-30T00:19:09.490Z,10.05
2023-04-30T00:21:41.891Z,7.05
2023-04-30T00:24:14.212Z,6.18
2023-04-30T00:26:47.112Z,5.55
2023-04-30T00:29:19.477Z,4.88
2023-04-30T00:31:52.568Z,5.40
2023-04-30T00:34:24.956Z,4.97
2023-04-30T00:36:57.369Z,5.15
2023-04-30T00:39:29.708Z,3.97
2023-04-30T00:42:02.221Z,4.53
2023-04-30T00:44:34.554Z,4.03
2023-04-30T00:47:07.553Z,4.50
2023-04-30T00:49:40.222Z,3.60
2023-04-30T00:52:13.003Z,4.00
2023-04-30T00:54:45.517Z,3.72
2023-04-30T00:57:17.901Z,4.35
2023-04-30T00:59:50.683Z,5.43
2023-04-30T01:02:24.040Z,5.55
2023-04-30T01:04:57.128Z,5.03
2023-04-30T01:07:30.461Z,4.70
2023-04-30T01:10:03.061Z,5.80
2023-04-30T01:12:39.353Z,5.32
2023-04-30T01:15:18.914Z,5.60
2023-04-30T01:17:56.773Z,4.78
2023-04-30T01:20:30.758Z,4.50
2023-04-30T01:23:11.816Z,4.65
2023-04-30T01:25:53.191Z,3.85
2023-04-30T01:28:28.213Z,4.18
2023-04-30T01:31:02.004Z,5.53
2023-04-30T01:33:34.359Z,4.93
2023-04-30T01:36:29.641Z,4.18
2023-04-30T01:39:37.496Z,4.72
2023-04-30T01:42:16.240Z,4.85
2023-04-30T01:45:09.190Z,4.25
2023-04-30T01:47:49.855Z,3.22
2023-04-30T01:50:29.383Z,3.92
2023-04-30T01:53:06.547Z,3.65
2023-04-30T01:55:43.209Z,4.25
2023-04-30T01:58:16.645Z,4.63
2023-04-30T02:00:49.707Z,6.40
2023-04-30T02:03:22.313Z,6.80
2023-04-30T02:05:55.084Z,5.15
2023-04-30T02:08:27.410Z,4.57
2023-04-30T02:10:59.716Z,3.67
2023-04-30T02:13:32.039Z,3.85
2023-04-30T02:16:06.160Z,4.20
2023-04-30T02:18:38.664Z,3.40
2023-04-30T02:21:11.149Z,4.45
2023-04-30T02:23:43.539Z,5.07
2023-04-30T02:26:15.882Z,4.95
2023-04-30T02:28:48.219Z,5.07
2023-04-30T02:31:21.303Z,4.95
2023-04-30T02:33:54.274Z,4.32
2023-04-30T02:36:26.608Z,4.30
2023-04-30T02:38:58.968Z,4.38
2023-04-30T02:41:31.371Z,3.90
2023-04-30T02:44:04.181Z,3.45
2023-04-30T02:46:37.199Z,3.67
2023-04-30T02:49:09.498Z,9.40
2023-04-30T02:51:41.800Z,8.00
2023-04-30T02:54:14.126Z,6.30
2023-04-30T02:56:46.807Z,6.30
2023-04-30T02:59:19.144Z,5.93
2023-04-30T03:01:52.227Z,5.30
2023-04-30T03:04:26.454Z,5.82
2023-04-30T03:06:59.814Z,4.47
2023-04-30T03:09:32.154Z,5.70
2023-04-30T03:12:05.107Z,5.53
2023-04-30T03:14:37.453Z,4.20
2023-04-30T03:17:10.493Z,3.95
2023-04-30T03:19:42.855Z,4.63
2023-04-30T03:22:15.178Z,5.05
2023-04-30T03:24:47.462Z,4.18
2023-04-30T03:27:20.229Z,3.70
2023-04-30T03:29:52.844Z,4.13
2023-04-30T03:32:26.465Z,3.42
2023-04-30T03:34:58.856Z,4.32
2023-04-30T03:37:32.276Z,4.03
2023-04-30T03:40:06.201Z,5.35
2023-04-30T03:42:38.549Z,5.40
2023-04-30T03:45:11.340Z,7.38
2023-04-30T03:47:44.953Z,7.68
2023-04-30T03:50:18.298Z,5.53
2023-04-30T03:52:50.959Z,7.25
2023-04-30T03:55:23.559Z,7.70
2023-04-30T03:57:55.958Z,7.25
2023-04-30T04:00:28.463Z,6.90
2023-04-30T04:03:01.668Z,9.43
2023-04-30T04:05:34.073Z,11.48
2023-04-30T04:08:06.848Z,16.23
2023-04-30T04:10:39.822Z,15.65
2023-04-30T04:13:12.267Z,12.52
2023-04-30T04:15:44.613Z,8.40
2023-04-30T04:18:17.631Z,8.05
2023-04-30T04:20:50.200Z,6.43
2023-04-30T04:23:23.082Z,6.68
2023-04-30T04:25:56.788Z,4.80
2023-04-30T04:28:30.172Z,5.20
2023-04-30T04:31:03.029Z,6.60
2023-04-30T04:33:36.461Z,7.57
2023-04-30T04:36:08.804Z,6.78
2023-04-30T04:38:41.323Z,5.70
2023-04-30T04:41:13.766Z,6.68
2023-04-30T04:43:46.100Z,6.18
2023-04-30T04:46:20.192Z,5.90
2023-04-30T04:48:53.349Z,5.47
2023-04-30T04:51:26.178Z,5.00
2023-04-30T04:53:58.575Z,3.72
2023-04-30T04:56:30.985Z,5.70
2023-04-30T04:59:03.362Z,5.70
2023-04-30T05:01:35.802Z,4.50
2023-04-30T05:04:09.226Z,5.55
2023-04-30T05:06:42.359Z,5.10
2023-04-30T05:09:15.014Z,5.45
2023-04-30T05:11:48.308Z,5.75
2023-04-30T05:14:20.621Z,5.63
2023-04-30T05:16:52.928Z,5.45
2023-04-30T05:19:26.015Z,6.95
2023-04-30T05:22:00.629Z,7.97
2023-04-30T05:24:33.509Z,7.25
2023-04-30T05:27:05.981Z,6.85
2023-04-30T05:29:38.293Z,6.28
2023-04-30T05:32:10.827Z,5.82
2023-04-30T05:34:43.855Z,5.30
2023-04-30T05:37:17.014Z,7.00
2023-04-30T05:39:49.346Z,6.68
2023-04-30T05:42:21.680Z,6.30
2023-04-30T05:44:53.974Z,5.90
2023-04-30T05:47:26.294Z,6.03
2023-04-30T05:49:59.389Z,5.95
2023-04-30T05:52:32.092Z,5.93
2023-04-30T05:55:05.132Z,6.25
2023-04-30T05:57:37.557Z,6.70
2023-04-30T06:00:10.708Z,6.03
2023-04-30T06:02:45.987Z,6.70
2023-04-30T06:05:19.163Z,14.57
2023-04-30T06:07:51.490Z,11.82
2023-04-30T06:10:24.066Z,5.95
2023-04-30T06:12:56.390Z,4.55
2023-04-30T06:15:28.722Z,4.53
2023-04-30T06:18:01.540Z,4.32
2023-04-30T06:20:34.636Z,6.43
2023-04-30T06:23:06.936Z,6.38
2023-04-30T06:25:39.711Z,13.85
2023-04-30T06:28:11.992Z,7.18
2023-04-30T06:30:44.795Z,4.38
2023-04-30T06:33:17.256Z,3.28
2023-04-30T06:35:53.917Z,5.40
2023-04-30T06:38:26.206Z,2.75
2023-04-30T06:40:58.537Z,7.75
2023-04-30T06:43:31.110Z,3.90
2023-04-30T06:46:04.363Z,3.33
2023-04-30T06:48:36.757Z,3.65
2023-04-30T06:51:10.840Z,2.38
2023-04-30T06:53:43.462Z,2.60
2023-04-30T06:56:15.797Z,2.83
2023-04-30T06:58:49.653Z,4.00
2023-04-30T07:01:22.019Z,5.10
2023-04-30T07:03:54.515Z,3.28
2023-04-30T07:06:27.839Z,3.72
2023-04-30T07:09:00.199Z,2.67
2023-04-30T07:11:32.718Z,3.22
2023-04-30T07:14:05.041Z,2.85
2023-04-30T07:16:37.299Z,3.10
2023-04-30T07:19:09.600Z,3.08
2023-04-30T07:21:42.576Z,2.80
2023-04-30T07:24:14.956Z,2.40
2023-04-30T07:26:47.277Z,2.55
2023-04-30T07:29:19.719Z,4.18
2023-04-30T07:31:52.152Z,4.63
2023-04-30T07:34:25.069Z,1.85
2023-04-30T07:36:58.010Z,2.75
2023-04-30T07:39:30.683Z,3.28
2023-04-30T07:42:03.394Z,3.08
2023-04-30T07:44:35.667Z,2.60
2023-04-30T07:47:09.229Z,3.78
2023-04-30T07:49:41.587Z,3.42
2023-04-30T07:52:14.682Z,3.38
2023-04-30T07:54:47.022Z,4.22
2023-04-30T07:57:19.350Z,5.25
2023-04-30T07:59:53.130Z,4.78
2023-04-30T08:02:26.095Z,4.90
2023-04-30T08:04:58.571Z,4.13
2023-04-30T08:07:31.532Z,4.03
2023-04-30T08:10:04.433Z,4.55
2023-04-30T08:12:36.799Z,5.53
2023-04-30T08:15:09.308Z,5.47
2023-04-30T08:17:41.626Z,4.43
2023-04-30T08:20:14.231Z,4.68
2023-04-30T08:22:47.263Z,5.60
2023-04-30T08:25:19.676Z,6.13
2023-04-30T08:27:51.989Z,3.45
2023-04-30T08:30:24.732Z,4.50
2023-04-30T08:32:57.780Z,4.00
2023-04-30T08:35:30.409Z,4.35
2023-04-30T08:38:03.397Z,3.45
2023-04-30T08:40:50.371Z,3.88
2023-04-30T08:43:23.740Z,3.80
2023-04-30T08:45:56.724Z,2.75
2023-04-30T08:48:30.473Z,3.15
2023-04-30T08:51:04.308Z,3.38
2023-04-30T08:53:37.670Z,3.28
2023-04-30T08:56:10.598Z,3.05
2023-04-30T08:58:43.128Z,3.17
2023-04-30T09:01:16.048Z,3.63
2023-04-30T09:03:48.566Z,2.95
2023-04-30T09:06:21.372Z,3.70
2023-04-30T09:08:54.535Z,4.22
2023-04-30T09:11:28.416Z,3.75
2023-04-30T09:14:02.082Z,3.88
2023-04-30T09:16:46.247Z,3.33
2023-04-30T09:19:25.289Z,3.10
2023-04-30T09:21:57.723Z,2.72
2023-04-30T09:24:46.799Z,2.75
2023-04-30T09:27:21.364Z,2.58
2023-04-30T09:29:53.948Z,3.47
2023-04-30T09:32:26.688Z,2.67
2023-04-30T09:34:59.074Z,2.65
2023-04-30T09:37:37.295Z,3.00
2023-04-30T09:40:10.984Z,2.80
2023-04-30T09:42:58.112Z,3.58
2023-04-30T09:45:40.098Z,2.70
2023-04-30T09:48:17.193Z,2.47
2023-04-30T09:50:50.474Z,2.90
2023-04-30T09:53:23.532Z,2.85
2023-04-30T09:56:00.015Z,2.90
2023-04-30T09:58:36.927Z,3.25
2023-04-30T10:01:11.041Z,2.22
2023-04-30T10:03:43.922Z,2.28
2023-04-30T10:06:18.001Z,2.28
2023-04-30T10:08:55.680Z,2.65
2023-04-30T10:11:32.599Z,2.50
2023-04-30T10:14:10.477Z,3.50
2023-04-30T10:16:47.199Z,3.80
2023-04-30T10:19:22.506Z,4.32
2023-04-30T10:21:55.276Z,4.35
2023-04-30T10:24:28.118Z,3.97
2023-04-30T10:27:02.463Z,4.40
2023-04-30T10:29:34.838Z,5.90
2023-04-30T10:32:08.051Z,4.97
2023-04-30T10:34:49.820Z,4.47
2023-04-30T10:37:31.257Z,4.72
2023-04-30T10:40:05.046Z,2.92
2023-04-30T10:42:44.863Z,2.90
2023-04-30T10:45:17.411Z,3.40
2023-04-30T10:47:49.878Z,2.90
2023-04-30T10:50:23.636Z,3.08
2023-04-30T10:53:02.968Z,3.25
2023-04-30T10:55:46.430Z,3.88
2023-04-30T10:58:26.853Z,3.35
2023-04-30T11:01:03.806Z,3.28
2023-04-30T11:03:36.914Z,4.97
2023-04-30T11:06:11.986Z,4.97
2023-04-30T11:08:45.566Z,3.13
2023-04-30T11:11:20.365Z,4.10
2023-04-30T11:14:00.285Z,4.57
2023-04-30T11:16:35.110Z,4.70
2023-04-30T11:19:11.560Z,3.58
2023-04-30T11:22:18.654Z,2.40
2023-04-30T11:25:02.869Z,2.75
2023-04-30T11:27:36.778Z,3.13
2023-04-30T11:30:14.733Z,2.85
2023-04-30T11:32:50.220Z,2.70
2023-04-30T11:35:22.702Z,3.72
2023-04-30T11:37:56.751Z,2.90
2023-04-30T11:40:35.012Z,2.42
2023-04-30T11:43:07.693Z,2.90
2023-04-30T11:45:40.905Z,2.78
2023-04-30T11:48:14.044Z,2.88
2023-04-30T11:50:46.873Z,2.78
2023-04-30T11:53:26.236Z,2.60
2023-04-30T11:56:03.327Z,2.42
2023-04-30T11:58:38.467Z,2.25
2023-04-30T12:01:11.687Z,2.42
2023-04-30T12:03:45.757Z,2.72
2023-04-30T12:06:22.836Z,2.78
2023-04-30T12:08:56.111Z,2.40
2023-04-30T12:11:30.230Z,2.78
2023-04-30T12:14:04.423Z,2.50
2023-04-30T12:16:43.526Z,2.70
2023-04-30T12:19:16.412Z,1.25
2023-04-30T12:21:49.408Z,1.50
2023-04-30T12:24:22.932Z,2.17
2023-04-30T12:26:55.290Z,1.75
2023-04-30T12:29:27.718Z,1.75
2023-04-30T12:32:01.066Z,1.77
2023-04-30T12:34:33.910Z,1.42
2023-04-30T12:37:06.522Z,2.20
2023-04-30T12:39:38.869Z,2.95
2023-04-30T12:42:11.366Z,3.35
2023-04-30T12:44:44.767Z,3.28
2023-04-30T12:47:18.464Z,2.58
2023-04-30T12:49:51.019Z,11.10
2023-04-30T12:52:25.483Z,4.95
2023-04-30T12:55:14.640Z,3.03
2023-04-30T12:58:06.714Z,2.15
2023-04-30T13:00:46.926Z,2.33
2023-04-30T13:03:21.522Z,2.72
2023-04-30T13:05:54.093Z,4.30
2023-04-30T13:08:27.264Z,3.03
2023-04-30T13:10:59.549Z,5.88
2023-04-30T13:13:33.065Z,4.35
2023-04-30T13:16:05.972Z,2.45
2023-04-30T13:18:39.020Z,7.65
2023-04-30T13:21:12.057Z,2.47
2023-04-30T13:23:51.976Z,2.30
2023-04-30T13:26:26.268Z,3.80
2023-04-30T13:28:58.706Z,2.97
2023-04-30T13:31:31.374Z,2.08
2023-04-30T13:34:04.478Z,5.55
2023-04-30T13:36:36.921Z,3.63
2023-04-30T13:39:09.265Z,11.95
2023-04-30T13:41:41.597Z,2.40
2023-04-30T13:44:13.915Z,3.97
2023-04-30T13:46:46.283Z,2.35
2023-04-30T13:49:19.309Z,6.60
2023-04-30T13:51:51.651Z,4.38
2023-04-30T13:54:23.975Z,2.15
2023-04-30T13:56:56.382Z,2.17
2023-04-30T13:59:28.923Z,2.47
2023-04-30T14:02:01.398Z,1.92
2023-04-30T14:04:34.581Z,4.20
2023-04-30T14:07:06.968Z,1.40
2023-04-30T14:09:39.329Z,3.65
2023-04-30T14:12:11.647Z,1.85
2023-04-30T14:14:43.998Z,3.88
2023-04-30T14:17:16.372Z,1.73
2023-04-30T14:19:49.378Z,1.52
2023-04-30T14:22:21.999Z,1.50
2023-04-30T14:24:54.371Z,2.20
2023-04-30T14:27:26.710Z,3.45
2023-04-30T14:29:59.174Z,1.90
2023-04-30T14:32:31.518Z,1.52
2023-04-30T14:35:05.680Z,8.63
2023-04-30T14:37:37.985Z,2.53
2023-04-30T14:40:11.115Z,1.27
2023-04-30T14:42:43.600Z,2.00
2023-04-30T14:45:16.119Z,2.22
2023-04-30T14:47:48.686Z,3.53
2023-04-30T14:50:21.715Z,1.45
2023-04-30T14:52:54.039Z,3.13
2023-04-30T14:55:26.499Z,1.35
2023-04-30T14:57:59.052Z,1.67
2023-04-30T15:00:31.472Z,1.75
2023-04-30T15:03:03.919Z,1.48
2023-04-30T15:05:37.184Z,1.80
2023-04-30T15:08:09.997Z,1.85
2023-04-30T15:10:42.571Z,7.47
2023-04-30T15:13:14.896Z,1.58
2023-04-30T15:15:48.941Z,1.27
2023-04-30T15:18:21.328Z,1.30
2023-04-30T15:20:54.343Z,2.03
2023-04-30T15:23:26.700Z,1.70
2023-04-30T15:25:59.202Z,1.67
2023-04-30T15:28:32.345Z,2.40
2023-04-30T15:31:05.667Z,1.40
2023-04-30T15:33:41.262Z,1.70
2023-04-30T15:36:14.246Z,2.13
2023-04-30T15:38:46.670Z,1.55
2023-04-30T15:41:19.006Z,1.65
2023-04-30T15:43:51.355Z,1.95
2023-04-30T15:46:23.856Z,2.05
2023-04-30T15:48:56.538Z,2.00
2023-04-30T15:51:29.571Z,1.42
2023-04-30T15:54:02.094Z,2.80
2023-04-30T15:56:35.035Z,2.50
2023-04-30T15:59:07.367Z,1.80
2023-04-30T16:01:39.744Z,2.35
2023-04-30T16:04:12.151Z,1.95
2023-04-30T16:06:45.370Z,2.33
2023-04-30T16:09:19.742Z,2.58
2023-04-30T16:11:52.074Z,1.98
2023-04-30T16:14:24.398Z,1.95
2023-04-30T16:16:56.905Z,3.95
2023-04-30T16:19:29.332Z,2.85
2023-04-30T16:22:02.837Z,3.63
2023-04-30T16:24:35.300Z,2.67
2023-04-30T16:27:07.842Z,2.45
2023-04-30T16:29:40.147Z,2.05
2023-04-30T16:32:12.858Z,2.65
2023-04-30T16:34:45.387Z,7.05
2023-04-30T16:37:18.433Z,3.22
2023-04-30T16:39:50.778Z,2.80
2023-04-30T16:42:23.114Z,2.53
2023-04-30T16:44:55.443Z,1.98
2023-04-30T16:47:27.770Z,2.50
2023-04-30T16:50:00.117Z,2.85
2023-04-30T16:52:33.890Z,2.88
2023-04-30T16:55:07.459Z,2.80
2023-04-30T16:57:39.842Z,3.00
2023-04-30T17:00:14.204Z,4.68
2023-04-30T17:02:48.063Z,3.05
2023-04-30T17:05:20.980Z,2.00
2023-04-30T17:07:53.980Z,2.63
2023-04-30T17:10:26.699Z,2.67
2023-04-30T17:13:01.235Z,2.60
2023-04-30T17:15:33.566Z,5.05
2023-04-30T17:18:06.221Z,3.72
2023-04-30T17:20:38.669Z,3.50
2023-04-30T17:23:11.676Z,3.08
2023-04-30T17:25:43.990Z,2.97
2023-04-30T17:28:16.609Z,3.00
2023-04-30T17:30:49.266Z,2.90
2023-04-30T17:33:21.605Z,2.80
2023-04-30T17:35:54.316Z,5.40
2023-04-30T17:38:27.578Z,5.15
2023-04-30T17:41:00.020Z,4.78
2023-04-30T17:43:32.869Z,5.75
2023-04-30T17:46:05.319Z,5.10
2023-04-30T17:48:37.781Z,5.60
2023-04-30T17:51:10.321Z,3.15
2023-04-30T17:53:43.322Z,4.45
2023-04-30T17:56:15.663Z,4.70
2023-04-30T17:58:48.416Z,3.55
2023-04-30T18:01:20.975Z,9.85
2023-04-30T18:03:53.471Z,5.53
2023-04-30T18:06:25.923Z,8.60
2023-04-30T18:09:00.941Z,6.25
2023-04-30T18:11:33.346Z,4.43
2023-04-30T18:14:05.646Z,11.00
2023-04-30T18:16:38.044Z,4.03
2023-04-30T18:19:10.423Z,4.53
2023-04-30T18:21:42.797Z,4.22
2023-04-30T18:24:16.066Z,4.57
2023-04-30T18:26:48.429Z,15.07
2023-04-30T18:29:20.777Z,14.30
2023-04-30T18:31:53.216Z,14.15
2023-04-30T18:34:27.386Z,11.68
2023-04-30T18:36:59.785Z,11.35
2023-04-30T18:39:32.836Z,11.40
2023-04-30T18:42:05.244Z,8.85
2023-04-30T18:44:37.569Z,11.02
2023-04-30T18:47:10.677Z,10.25
2023-04-30T18:49:43.310Z,8.40
2023-04-30T18:52:15.685Z,6.22
2023-04-30T18:54:48.923Z,7.05
2023-04-30T18:57:21.270Z,6.85
2023-04-30T18:59:54.227Z,6.53
2023-04-30T19:02:26.945Z,8.07
2023-04-30T19:04:59.494Z,6.55
2023-04-30T19:07:31.909Z,7.97
2023-04-30T19:10:05.824Z,9.63
2023-04-30T19:12:38.553Z,7.53
2023-04-30T19:15:14.388Z,6.90
2023-04-30T19:17:46.982Z,6.80
2023-04-30T19:20:19.364Z,6.45
2023-04-30T19:22:51.735Z,7.70
2023-04-30T19:25:26.054Z,9.82
2023-04-30T19:27:58.417Z,10.25
2023-04-30T19:30:30.794Z,13.88
2023-04-30T19:33:04.697Z,12.45
2023-04-30T19:35:38.019Z,12.65
2023-04-30T19:38:10.325Z,10.88
2023-04-30T19:40:47.319Z,8.45
2023-04-30T19:43:20.396Z,8.88
2023-04-30T19:45:54.065Z,8.40
2023-04-30T19:48:26.526Z,10.35
2023-04-30T19:50:58.858Z,8.27
2023-04-30T19:53:31.364Z,8.68
2023-04-30T19:56:04.539Z,8.38
2023-04-30T19:58:36.990Z,7.78
2023-04-30T20:01:09.880Z,8.32
2023-04-30T20:03:42.717Z,8.52
2023-04-30T20:06:15.268Z,16.10
2023-04-30T20:08:48.150Z,9.95
2023-04-30T20:11:22.003Z,8.85
2023-04-30T20:13:54.753Z,7.68
2023-04-30T20:16:27.162Z,28.80
2023-04-30T20:18:59.636Z,21.10
2023-04-30T20:21:32.213Z,11.45
2023-04-30T20:24:05.482Z,11.65
2023-04-30T20:26:38.556Z,9.55
2023-04-30T20:29:10.966Z,11.98
2023-04-30T20:31:43.400Z,13.20
2023-04-30T20:34:16.087Z,9.95
2023-04-30T20:36:49.229Z,11.02
2023-04-30T20:39:21.753Z,11.20
2023-04-30T20:41:54.819Z,13.32
2023-04-30T20:44:27.396Z,10.77
2023-04-30T20:46:59.767Z,10.20
2023-04-30T20:49:32.135Z,8.20
2023-04-30T20:52:05.083Z,9.15
2023-04-30T20:54:37.432Z,8.15
2023-04-30T20:57:10.539Z,9.63
2023-04-30T20:59:43.072Z,10.40
2023-04-30T21:02:15.763Z,9.13
2023-04-30T21:04:48.141Z,9.68
2023-04-30T21:07:20.499Z,8.77
2023-04-30T21:09:53.052Z,9.40
2023-04-30T21:12:26.240Z,7.78
2023-04-30T21:14:59.016Z,7.32
2023-04-30T21:17:31.592Z,6.95
2023-04-30T21:20:04.431Z,6.18
2023-04-30T21:22:38.511Z,8.20
2023-04-30T21:25:11.443Z,6.57
2023-04-30T21:27:44.885Z,6.28
2023-04-30T21:30:17.561Z,6.82
2023-04-30T21:32:49.973Z,7.13
2023-04-30T21:35:22.356Z,6.05
2023-04-30T21:37:55.037Z,5.90
2023-04-30T21:40:27.532Z,5.50
2023-04-30T21:43:01.027Z,5.45
2023-04-30T21:45:34.230Z,5.63
2023-04-30T21:48:06.739Z,7.05
2023-04-30T21:50:39.405Z,7.57
2023-04-30T21:53:11.795Z,8.25
2023-04-30T21:55:44.153Z,7.25
2023-04-30T21:58:17.170Z,6.65
2023-04-30T22:00:50.072Z,6.95
2023-04-30T22:03:22.512Z,7.05
2023-04-30T22:05:54.914Z,5.50
2023-04-30T22:08:27.678Z,4.38
2023-04-30T22:11:00.965Z,3.90
2023-04-30T22:13:33.925Z,5.13
2023-04-30T22:16:07.150Z,4.85
2023-04-30T22:18:39.581Z,4.57
2023-04-30T22:21:12.105Z,4.60
2023-04-30T22:23:44.560Z,6.85
2023-04-30T22:26:16.921Z,7.10
2023-04-30T22:28:49.957Z,5.78
2023-04-30T22:31:22.400Z,6.18
2023-04-30T22:33:54.874Z,7.25
2023-04-30T22:36:27.225Z,6.47
2023-04-30T22:38:59.643Z,6.40
2023-04-30T22:41:33.951Z,5.53
2023-04-30T22:44:07.244Z,5.53
2023-04-30T22:46:40.397Z,4.57
2023-04-30T22:49:27.356Z,4.45
2023-04-30T22:52:03.803Z,4.28
2023-04-30T22:54:36.280Z,6.07
2023-04-30T22:57:08.767Z,7.53
2023-04-30T22:59:41.870Z,6.43
2023-04-30T23:02:14.349Z,6.47
2023-04-30T23:04:46.748Z,5.63
2023-04-30T23:07:19.106Z,5.70
2023-04-30T23:09:51.721Z,5.43
2023-04-30T23:12:24.147Z,5.15
2023-04-30T23:14:57.244Z,6.43
2023-04-30T23:17:29.603Z,4.90
2023-04-30T23:20:02.489Z,4.72
2023-04-30T23:22:34.886Z,4.43
2023-04-30T23:25:07.783Z,3.97
2023-04-30T23:27:40.152Z,3.65
2023-04-30T23:30:13.356Z,3.92
2023-04-30T23:32:45.860Z,3.35
2023-04-30T23:35:18.416Z,3.90
2023-04-30T23:37:50.822Z,3.80
2023-04-30T23:40:23.246Z,3.13
2023-04-30T23:42:55.617Z,3.25
2023-04-30T23:45:28.594Z,4.00
2023-04-30T23:48:01.075Z,3.80
2023-04-30T23:50:33.511Z,4.20
2023-04-30T23:53:05.814Z,5.13
2023-04-30T23:55:40.660Z,5.97
2023-04-30T23:58:13.186Z,4.32
